sensor_id;sensor_type;location;lat;lon;timestamp;P1;durP1;ratioP1;P2;durP2;ratioP2
41683;SDS011;27369;52.030;4.586;2022-08-30T00:00:15;8.15;;;3.97;;
41683;SDS011;27369;52.030;4.586;2022-08-30T00:03:02;8.13;;;4.03;;
41683;SDS011;27369;52.030;4.586;2022-08-30T00:05:28;6.55;;;4.15;;
41683;SDS011;27369;52.030;4.586;2022-08-30T00:07:54;7.47;;;4.05;;
41683;SDS011;27369;52.030;4.586;2022-08-30T00:10:22;7.75;;;3.67;;
41683;SDS011;27369;52.030;4.586;2022-08-30T00:12:48;8.25;;;5.25;;
41683;SDS011;27369;52.030;4.586;2022-08-30T00:15:14;4.93;;;3.50;;
41683;SDS011;27369;52.030;4.586;2022-08-30T00:17:40;6.47;;;3.90;;
41683;SDS011;27369;52.030;4.586;2022-08-30T00:20:08;5.63;;;4.10;;
41683;SDS011;27369;52.030;4.586;2022-08-30T00:22:36;8.13;;;4.38;;
41683;SDS011;27369;52.030;4.586;2022-08-30T00:25:02;6.43;;;3.90;;
41683;SDS011;27369;52.030;4.586;2022-08-30T00:27:27;6.88;;;4.20;;
41683;SDS011;27369;52.030;4.586;2022-08-30T00:29:54;6.53;;;4.07;;
41683;SDS011;27369;52.030;4.586;2022-08-30T00:32:20;6.32;;;3.97;;
41683;SDS011;27369;52.030;4.586;2022-08-30T00:34:47;5.40;;;3.90;;
41683;SDS011;27369;52.030;4.586;2022-08-30T00:37:14;4.95;;;3.90;;
41683;SDS011;27369;52.030;4.586;2022-08-30T00:39:39;9.00;;;4.25;;
41683;SDS011;27369;52.030;4.586;2022-08-30T00:42:05;6.82;;;4.05;;
41683;SDS011;27369;52.030;4.586;2022-08-30T00:44:31;9.05;;;4.55;;
41683;SDS011;27369;52.030;4.586;2022-08-30T00:46:57;5.57;;;4.05;;
41683;SDS011;27369;52.030;4.586;2022-08-30T00:49:22;7.35;;;4.47;;
41683;SDS011;27369;52.030;4.586;2022-08-30T00:51:49;6.47;;;4.68;;
41683;SDS011;27369;52.030;4.586;2022-08-30T00:54:15;9.43;;;4.53;;
41683;SDS011;27369;52.030;4.586;2022-08-30T00:56:43;10.50;;;5.85;;
41683;SDS011;27369;52.030;4.586;2022-08-30T00:59:09;8.75;;;4.82;;
41683;SDS011;27369;52.030;4.586;2022-08-30T01:01:35;7.93;;;4.70;;
41683;SDS011;27369;52.030;4.586;2022-08-30T01:04:01;6.20;;;4.90;;
41683;SDS011;27369;52.030;4.586;2022-08-30T01:06:29;5.82;;;4.45;;
41683;SDS011;27369;52.030;4.586;2022-08-30T01:08:58;9.70;;;4.55;;
41683;SDS011;27369;52.030;4.586;2022-08-30T01:11:24;8.90;;;4.68;;
41683;SDS011;27369;52.030;4.586;2022-08-30T01:13:50;7.40;;;4.78;;
41683;SDS011;27369;52.030;4.586;2022-08-30T01:16:18;7.75;;;4.97;;
41683;SDS011;27369;52.030;4.586;2022-08-30T01:18:45;7.22;;;5.20;;
41683;SDS011;27369;52.030;4.586;2022-08-30T01:23:56;8.00;;;4.40;;
41683;SDS011;27369;52.030;4.586;2022-08-30T01:26:23;7.63;;;5.10;;
41683;SDS011;27369;52.030;4.586;2022-08-30T01:28:53;8.43;;;4.63;;
41683;SDS011;27369;52.030;4.586;2022-08-30T01:31:21;6.50;;;4.75;;
41683;SDS011;27369;52.030;4.586;2022-08-30T01:33:47;6.28;;;5.05;;
41683;SDS011;27369;52.030;4.586;2022-08-30T01:36:12;9.13;;;4.78;;
41683;SDS011;27369;52.030;4.586;2022-08-30T01:38:41;6.82;;;4.93;;
41683;SDS011;27369;52.030;4.586;2022-08-30T01:41:17;6.47;;;4.90;;
41683;SDS011;27369;52.030;4.586;2022-08-30T01:43:45;8.13;;;4.85;;
41683;SDS011;27369;52.030;4.586;2022-08-30T01:46:12;9.98;;;5.28;;
41683;SDS011;27369;52.030;4.586;2022-08-30T01:48:40;7.53;;;4.72;;
41683;SDS011;27369;52.030;4.586;2022-08-30T01:51:08;9.07;;;5.55;;
41683;SDS011;27369;52.030;4.586;2022-08-30T01:53:36;6.43;;;5.05;;
41683;SDS011;27369;52.030;4.586;2022-08-30T01:56:03;8.45;;;5.20;;
41683;SDS011;27369;52.030;4.586;2022-08-30T01:58:29;8.52;;;5.93;;
41683;SDS011;27369;52.030;4.586;2022-08-30T02:00:55;7.63;;;5.75;;
41683;SDS011;27369;52.030;4.586;2022-08-30T02:05:46;7.57;;;5.60;;
41683;SDS011;27369;52.030;4.586;2022-08-30T02:08:12;12.13;;;5.25;;
41683;SDS011;27369;52.030;4.586;2022-08-30T02:10:38;9.45;;;5.22;;
41683;SDS011;27369;52.030;4.586;2022-08-30T02:13:03;8.45;;;5.60;;
41683;SDS011;27369;52.030;4.586;2022-08-30T02:15:28;8.00;;;5.88;;
41683;SDS011;27369;52.030;4.586;2022-08-30T02:17:54;8.30;;;5.53;;
41683;SDS011;27369;52.030;4.586;2022-08-30T02:20:19;6.93;;;5.45;;
41683;SDS011;27369;52.030;4.586;2022-08-30T02:22:45;12.40;;;6.22;;
41683;SDS011;27369;52.030;4.586;2022-08-30T02:25:11;8.15;;;5.82;;
41683;SDS011;27369;52.030;4.586;2022-08-30T02:27:37;9.43;;;6.50;;
41683;SDS011;27369;52.030;4.586;2022-08-30T02:30:04;10.38;;;6.57;;
41683;SDS011;27369;52.030;4.586;2022-08-30T02:32:31;7.82;;;6.22;;
41683;SDS011;27369;52.030;4.586;2022-08-30T02:34:57;11.73;;;7.07;;
41683;SDS011;27369;52.030;4.586;2022-08-30T02:37:22;12.07;;;6.95;;
41683;SDS011;27369;52.030;4.586;2022-08-30T02:39:48;9.75;;;7.25;;
41683;SDS011;27369;52.030;4.586;2022-08-30T02:42:13;10.27;;;6.47;;
41683;SDS011;27369;52.030;4.586;2022-08-30T02:44:39;8.63;;;6.75;;
41683;SDS011;27369;52.030;4.586;2022-08-30T02:47:04;9.77;;;7.25;;
41683;SDS011;27369;52.030;4.586;2022-08-30T02:49:29;10.25;;;7.57;;
41683;SDS011;27369;52.030;4.586;2022-08-30T02:51:55;8.52;;;7.63;;
41683;SDS011;27369;52.030;4.586;2022-08-30T02:54:20;8.85;;;7.93;;
41683;SDS011;27369;52.030;4.586;2022-08-30T02:56:46;8.93;;;7.78;;
41683;SDS011;27369;52.030;4.586;2022-08-30T02:59:13;9.85;;;8.85;;
41683;SDS011;27369;52.030;4.586;2022-08-30T03:01:39;9.90;;;8.85;;
41683;SDS011;27369;52.030;4.586;2022-08-30T03:04:05;14.10;;;9.52;;
41683;SDS011;27369;52.030;4.586;2022-08-30T03:06:31;10.10;;;9.02;;
41683;SDS011;27369;52.030;4.586;2022-08-30T03:08:56;13.70;;;9.50;;
41683;SDS011;27369;52.030;4.586;2022-08-30T03:11:22;10.57;;;9.48;;
41683;SDS011;27369;52.030;4.586;2022-08-30T03:13:47;12.02;;;10.48;;
41683;SDS011;27369;52.030;4.586;2022-08-30T03:16:13;11.98;;;9.85;;
41683;SDS011;27369;52.030;4.586;2022-08-30T03:18:40;11.68;;;9.65;;
41683;SDS011;27369;52.030;4.586;2022-08-30T03:21:11;13.93;;;11.13;;
41683;SDS011;27369;52.030;4.586;2022-08-30T03:23:37;13.18;;;10.07;;
41683;SDS011;27369;52.030;4.586;2022-08-30T03:26:05;12.50;;;10.68;;
41683;SDS011;27369;52.030;4.586;2022-08-30T03:28:31;12.57;;;10.48;;
41683;SDS011;27369;52.030;4.586;2022-08-30T03:30:57;12.63;;;11.07;;
41683;SDS011;27369;52.030;4.586;2022-08-30T03:33:22;12.10;;;10.75;;
41683;SDS011;27369;52.030;4.586;2022-08-30T03:35:47;14.40;;;11.15;;
41683;SDS011;27369;52.030;4.586;2022-08-30T03:38:13;14.27;;;10.63;;
41683;SDS011;27369;52.030;4.586;2022-08-30T03:40:39;12.35;;;11.15;;
41683;SDS011;27369;52.030;4.586;2022-08-30T03:43:05;14.35;;;11.45;;
41683;SDS011;27369;52.030;4.586;2022-08-30T03:45:30;12.57;;;11.13;;
41683;SDS011;27369;52.030;4.586;2022-08-30T03:47:56;14.23;;;12.00;;
41683;SDS011;27369;52.030;4.586;2022-08-30T03:50:21;14.30;;;11.85;;
41683;SDS011;27369;52.030;4.586;2022-08-30T03:52:47;16.13;;;12.52;;
41683;SDS011;27369;52.030;4.586;2022-08-30T03:55:13;12.73;;;11.40;;
41683;SDS011;27369;52.030;4.586;2022-08-30T03:57:38;12.57;;;11.38;;
41683;SDS011;27369;52.030;4.586;2022-08-30T04:00:06;13.10;;;10.73;;
41683;SDS011;27369;52.030;4.586;2022-08-30T04:02:32;15.00;;;11.63;;
41683;SDS011;27369;52.030;4.586;2022-08-30T04:04:58;14.65;;;11.90;;
41683;SDS011;27369;52.030;4.586;2022-08-30T04:07:23;14.65;;;11.82;;
41683;SDS011;27369;52.030;4.586;2022-08-30T04:09:48;16.52;;;11.82;;
41683;SDS011;27369;52.030;4.586;2022-08-30T04:12:14;14.68;;;13.07;;
41683;SDS011;27369;52.030;4.586;2022-08-30T04:14:39;14.23;;;11.68;;
41683;SDS011;27369;52.030;4.586;2022-08-30T04:17:05;13.23;;;12.02;;
41683;SDS011;27369;52.030;4.586;2022-08-30T04:19:30;17.52;;;14.70;;
41683;SDS011;27369;52.030;4.586;2022-08-30T04:21:56;16.25;;;12.43;;
41683;SDS011;27369;52.030;4.586;2022-08-30T04:24:21;12.80;;;11.50;;
41683;SDS011;27369;52.030;4.586;2022-08-30T04:26:47;15.43;;;13.27;;
41683;SDS011;27369;52.030;4.586;2022-08-30T04:29:12;15.85;;;12.45;;
41683;SDS011;27369;52.030;4.586;2022-08-30T04:31:40;16.75;;;13.43;;
41683;SDS011;27369;52.030;4.586;2022-08-30T04:34:08;17.98;;;13.20;;
41683;SDS011;27369;52.030;4.586;2022-08-30T04:36:34;15.20;;;13.15;;
41683;SDS011;27369;52.030;4.586;2022-08-30T04:39:00;14.50;;;13.00;;
41683;SDS011;27369;52.030;4.586;2022-08-30T04:41:25;14.60;;;12.98;;
41683;SDS011;27369;52.030;4.586;2022-08-30T04:43:51;15.20;;;13.70;;
41683;SDS011;27369;52.030;4.586;2022-08-30T04:46:17;16.40;;;13.93;;
41683;SDS011;27369;52.030;4.586;2022-08-30T04:48:43;17.02;;;13.70;;
41683;SDS011;27369;52.030;4.586;2022-08-30T04:51:11;16.50;;;13.52;;
41683;SDS011;27369;52.030;4.586;2022-08-30T04:53:40;18.25;;;12.90;;
41683;SDS011;27369;52.030;4.586;2022-08-30T04:56:07;16.67;;;13.63;;
41683;SDS011;27369;52.030;4.586;2022-08-30T04:58:43;15.53;;;13.90;;
41683;SDS011;27369;52.030;4.586;2022-08-30T05:01:11;15.20;;;13.65;;
41683;SDS011;27369;52.030;4.586;2022-08-30T05:03:40;16.73;;;13.95;;
41683;SDS011;27369;52.030;4.586;2022-08-30T05:06:06;31.63;;;15.90;;
41683;SDS011;27369;52.030;4.586;2022-08-30T05:08:32;18.40;;;14.80;;
41683;SDS011;27369;52.030;4.586;2022-08-30T05:10:57;15.60;;;13.77;;
41683;SDS011;27369;52.030;4.586;2022-08-30T05:13:23;16.25;;;14.65;;
41683;SDS011;27369;52.030;4.586;2022-08-30T05:15:48;17.20;;;15.45;;
41683;SDS011;27369;52.030;4.586;2022-08-30T05:18:14;15.73;;;14.02;;
41683;SDS011;27369;52.030;4.586;2022-08-30T05:20:40;14.73;;;13.18;;
41683;SDS011;27369;52.030;4.586;2022-08-30T05:25:33;16.20;;;13.60;;
41683;SDS011;27369;52.030;4.586;2022-08-30T05:28:01;15.70;;;14.00;;
41683;SDS011;27369;52.030;4.586;2022-08-30T05:30:30;16.60;;;12.70;;
41683;SDS011;27369;52.030;4.586;2022-08-30T05:32:56;15.90;;;14.20;;
41683;SDS011;27369;52.030;4.586;2022-08-30T05:35:22;15.70;;;14.10;;
41683;SDS011;27369;52.030;4.586;2022-08-30T05:37:47;15.63;;;12.57;;
41683;SDS011;27369;52.030;4.586;2022-08-30T05:40:13;15.93;;;13.63;;
41683;SDS011;27369;52.030;4.586;2022-08-30T05:42:42;14.55;;;13.00;;
41683;SDS011;27369;52.030;4.586;2022-08-30T05:45:08;19.65;;;13.07;;
41683;SDS011;27369;52.030;4.586;2022-08-30T05:47:35;14.43;;;12.80;;
41683;SDS011;27369;52.030;4.586;2022-08-30T05:50:01;14.15;;;12.88;;
41683;SDS011;27369;52.030;4.586;2022-08-30T05:52:26;17.85;;;14.15;;
41683;SDS011;27369;52.030;4.586;2022-08-30T05:54:53;14.93;;;13.30;;
41683;SDS011;27369;52.030;4.586;2022-08-30T05:57:23;13.25;;;11.93;;
41683;SDS011;27369;52.030;4.586;2022-08-30T05:59:49;14.98;;;11.82;;
41683;SDS011;27369;52.030;4.586;2022-08-30T06:02:14;13.35;;;11.90;;
41683;SDS011;27369;52.030;4.586;2022-08-30T06:04:40;12.35;;;10.55;;
41683;SDS011;27369;52.030;4.586;2022-08-30T06:07:05;11.15;;;10.15;;
41683;SDS011;27369;52.030;4.586;2022-08-30T06:09:31;11.43;;;9.88;;
41683;SDS011;27369;52.030;4.586;2022-08-30T06:11:57;10.83;;;9.70;;
41683;SDS011;27369;52.030;4.586;2022-08-30T06:14:22;10.13;;;9.10;;
41683;SDS011;27369;52.030;4.586;2022-08-30T06:16:48;11.27;;;8.73;;
41683;SDS011;27369;52.030;4.586;2022-08-30T06:19:15;10.20;;;9.10;;
41683;SDS011;27369;52.030;4.586;2022-08-30T06:21:42;10.65;;;9.23;;
41683;SDS011;27369;52.030;4.586;2022-08-30T06:24:11;9.90;;;8.48;;
41683;SDS011;27369;52.030;4.586;2022-08-30T06:26:44;8.85;;;7.95;;
41683;SDS011;27369;52.030;4.586;2022-08-30T06:29:11;12.32;;;8.75;;
41683;SDS011;27369;52.030;4.586;2022-08-30T06:31:39;8.32;;;7.25;;
41683;SDS011;27369;52.030;4.586;2022-08-30T06:36:31;12.03;;;7.03;;
41683;SDS011;27369;52.030;4.586;2022-08-30T06:38:56;8.73;;;6.47;;
41683;SDS011;27369;52.030;4.586;2022-08-30T06:41:24;5.90;;;5.18;;
41683;SDS011;27369;52.030;4.586;2022-08-30T06:43:52;9.05;;;7.25;;
41683;SDS011;27369;52.030;4.586;2022-08-30T06:46:22;8.35;;;6.75;;
41683;SDS011;27369;52.030;4.586;2022-08-30T06:48:50;7.50;;;6.30;;
41683;SDS011;27369;52.030;4.586;2022-08-30T06:51:20;6.93;;;6.20;;
41683;SDS011;27369;52.030;4.586;2022-08-30T06:53:46;7.28;;;5.47;;
41683;SDS011;27369;52.030;4.586;2022-08-30T06:56:13;8.00;;;5.15;;
41683;SDS011;27369;52.030;4.586;2022-08-30T06:58:39;6.55;;;5.10;;
41683;SDS011;27369;52.030;4.586;2022-08-30T07:01:05;5.95;;;4.80;;
41683;SDS011;27369;52.030;4.586;2022-08-30T07:03:33;7.25;;;5.45;;
41683;SDS011;27369;52.030;4.586;2022-08-30T07:05:59;7.15;;;4.65;;
41683;SDS011;27369;52.030;4.586;2022-08-30T07:08:24;6.43;;;4.93;;
41683;SDS011;27369;52.030;4.586;2022-08-30T07:10:51;5.88;;;4.10;;
41683;SDS011;27369;52.030;4.586;2022-08-30T07:13:20;8.30;;;4.43;;
41683;SDS011;27369;52.030;4.586;2022-08-30T07:15:47;7.43;;;3.90;;
41683;SDS011;27369;52.030;4.586;2022-08-30T07:18:13;4.45;;;3.65;;
41683;SDS011;27369;52.030;4.586;2022-08-30T07:20:58;4.97;;;4.20;;
41683;SDS011;27369;52.030;4.586;2022-08-30T07:23:38;4.45;;;3.95;;
41683;SDS011;27369;52.030;4.586;2022-08-30T07:26:04;6.43;;;4.65;;
41683;SDS011;27369;52.030;4.586;2022-08-30T07:28:31;6.40;;;3.40;;
41683;SDS011;27369;52.030;4.586;2022-08-30T07:30:57;5.13;;;3.63;;
41683;SDS011;27369;52.030;4.586;2022-08-30T07:33:23;5.70;;;4.03;;
41683;SDS011;27369;52.030;4.586;2022-08-30T07:35:48;4.13;;;3.45;;
41683;SDS011;27369;52.030;4.586;2022-08-30T07:38:14;4.10;;;3.03;;
41683;SDS011;27369;52.030;4.586;2022-08-30T07:40:39;6.63;;;3.03;;
41683;SDS011;27369;52.030;4.586;2022-08-30T07:43:05;4.28;;;2.78;;
41683;SDS011;27369;52.030;4.586;2022-08-30T07:45:30;3.33;;;2.83;;
41683;SDS011;27369;52.030;4.586;2022-08-30T07:47:56;4.80;;;2.85;;
41683;SDS011;27369;52.030;4.586;2022-08-30T07:50:21;3.53;;;2.87;;
41683;SDS011;27369;52.030;4.586;2022-08-30T07:52:47;3.85;;;2.72;;
41683;SDS011;27369;52.030;4.586;2022-08-30T07:55:12;4.23;;;2.93;;
41683;SDS011;27369;52.030;4.586;2022-08-30T07:57:38;4.17;;;3.20;;
41683;SDS011;27369;52.030;4.586;2022-08-30T08:00:03;4.03;;;2.60;;
41683;SDS011;27369;52.030;4.586;2022-08-30T08:02:30;4.18;;;2.60;;
41683;SDS011;27369;52.030;4.586;2022-08-30T08:04:55;3.57;;;2.10;;
41683;SDS011;27369;52.030;4.586;2022-08-30T08:07:21;2.95;;;2.00;;
41683;SDS011;27369;52.030;4.586;2022-08-30T08:09:46;2.40;;;1.73;;
41683;SDS011;27369;52.030;4.586;2022-08-30T08:12:11;2.67;;;1.83;;
41683;SDS011;27369;52.030;4.586;2022-08-30T08:14:37;3.87;;;2.07;;
41683;SDS011;27369;52.030;4.586;2022-08-30T08:19:29;2.13;;;1.60;;
41683;SDS011;27369;52.030;4.586;2022-08-30T08:21:54;3.25;;;1.52;;
41683;SDS011;27369;52.030;4.586;2022-08-30T08:24:23;3.72;;;1.77;;
41683;SDS011;27369;52.030;4.586;2022-08-30T08:26:48;2.63;;;1.70;;
41683;SDS011;27369;52.030;4.586;2022-08-30T08:29:13;2.93;;;1.70;;
41683;SDS011;27369;52.030;4.586;2022-08-30T08:31:39;2.23;;;1.50;;
41683;SDS011;27369;52.030;4.586;2022-08-30T08:36:31;3.73;;;1.80;;
41683;SDS011;27369;52.030;4.586;2022-08-30T08:38:58;2.00;;;1.45;;
41683;SDS011;27369;52.030;4.586;2022-08-30T08:49:42;5.45;;;1.70;;
41683;SDS011;27369;52.030;4.586;2022-08-30T08:52:17;2.15;;;1.42;;
41683;SDS011;27369;52.030;4.586;2022-08-30T08:55:12;4.55;;;1.42;;
41683;SDS011;27369;52.030;4.586;2022-08-30T08:57:42;4.70;;;1.45;;
41683;SDS011;27369;52.030;4.586;2022-08-30T09:02:40;3.17;;;1.08;;
41683;SDS011;27369;52.030;4.586;2022-08-30T09:05:08;1.38;;;1.20;;
41683;SDS011;27369;52.030;4.586;2022-08-30T09:07:42;2.28;;;1.17;;
41683;SDS011;27369;52.030;4.586;2022-08-30T09:10:13;3.83;;;1.35;;
41683;SDS011;27369;52.030;4.586;2022-08-30T09:15:14;4.73;;;1.20;;
41683;SDS011;27369;52.030;4.586;2022-08-30T09:20:24;1.80;;;1.10;;
41683;SDS011;27369;52.030;4.586;2022-08-30T09:22:51;1.67;;;1.02;;
41683;SDS011;27369;52.030;4.586;2022-08-30T09:27:48;2.15;;;1.13;;
41683;SDS011;27369;52.030;4.586;2022-08-30T09:30:33;2.03;;;1.10;;
41683;SDS011;27369;52.030;4.586;2022-08-30T09:33:04;4.78;;;2.00;;
41683;SDS011;27369;52.030;4.586;2022-08-30T09:35:38;1.88;;;1.40;;
41683;SDS011;27369;52.030;4.586;2022-08-30T09:38:15;4.30;;;1.70;;
41683;SDS011;27369;52.030;4.586;2022-08-30T09:40:45;6.20;;;1.50;;
41683;SDS011;27369;52.030;4.586;2022-08-30T09:45:41;4.97;;;1.38;;
41683;SDS011;27369;52.030;4.586;2022-08-30T09:53:39;4.38;;;1.30;;
41683;SDS011;27369;52.030;4.586;2022-08-30T10:02:13;5.78;;;1.73;;
41683;SDS011;27369;52.030;4.586;2022-08-30T10:04:46;12.07;;;1.70;;
41683;SDS011;27369;52.030;4.586;2022-08-30T10:07:22;1.67;;;1.13;;
41683;SDS011;27369;52.030;4.586;2022-08-30T10:12:34;4.30;;;1.30;;
41683;SDS011;27369;52.030;4.586;2022-08-30T10:15:24;2.65;;;1.30;;
41683;SDS011;27369;52.030;4.586;2022-08-30T10:18:18;3.85;;;1.73;;
41683;SDS011;27369;52.030;4.586;2022-08-30T10:20:55;3.05;;;1.52;;
41683;SDS011;27369;52.030;4.586;2022-08-30T10:23:49;2.50;;;1.17;;
41683;SDS011;27369;52.030;4.586;2022-08-30T10:31:18;3.83;;;1.08;;
41683;SDS011;27369;52.030;4.586;2022-08-30T10:33:50;1.73;;;1.08;;
41683;SDS011;27369;52.030;4.586;2022-08-30T10:36:22;3.20;;;1.60;;
41683;SDS011;27369;52.030;4.586;2022-08-30T10:38:55;2.13;;;0.95;;
41683;SDS011;27369;52.030;4.586;2022-08-30T10:41:40;3.58;;;1.55;;
41683;SDS011;27369;52.030;4.586;2022-08-30T10:44:30;3.25;;;1.27;;
41683;SDS011;27369;52.030;4.586;2022-08-30T10:49:37;6.15;;;2.13;;
41683;SDS011;27369;52.030;4.586;2022-08-30T10:54:58;3.63;;;1.25;;
41683;SDS011;27369;52.030;4.586;2022-08-30T10:57:29;5.93;;;1.13;;
41683;SDS011;27369;52.030;4.586;2022-08-30T11:13:11;4.43;;;1.30;;
41683;SDS011;27369;52.030;4.586;2022-08-30T11:16:00;4.55;;;1.00;;
41683;SDS011;27369;52.030;4.586;2022-08-30T11:18:31;4.68;;;1.27;;
41683;SDS011;27369;52.030;4.586;2022-08-30T11:24:04;1.83;;;0.90;;
41683;SDS011;27369;52.030;4.586;2022-08-30T11:29:14;4.70;;;0.95;;
41683;SDS011;27369;52.030;4.586;2022-08-30T11:42:27;1.90;;;1.10;;
41683;SDS011;27369;52.030;4.586;2022-08-30T11:47:49;6.72;;;1.23;;
41683;SDS011;27369;52.030;4.586;2022-08-30T11:55:46;2.55;;;1.10;;
41683;SDS011;27369;52.030;4.586;2022-08-30T12:03:53;7.15;;;1.90;;
41683;SDS011;27369;52.030;4.586;2022-08-30T12:09:06;4.35;;;1.38;;
41683;SDS011;27369;52.030;4.586;2022-08-30T12:16:34;2.80;;;1.17;;
41683;SDS011;27369;52.030;4.586;2022-08-30T12:19:22;5.00;;;1.30;;
41683;SDS011;27369;52.030;4.586;2022-08-30T12:21:55;3.85;;;1.33;;
41683;SDS011;27369;52.030;4.586;2022-08-30T12:24:33;1.85;;;1.20;;
41683;SDS011;27369;52.030;4.586;2022-08-30T12:29:56;2.45;;;1.10;;
41683;SDS011;27369;52.030;4.586;2022-08-30T12:32:23;3.05;;;1.25;;
41683;SDS011;27369;52.030;4.586;2022-08-30T12:34:53;3.72;;;1.48;;
41683;SDS011;27369;52.030;4.586;2022-08-30T12:42:29;3.15;;;1.50;;
41683;SDS011;27369;52.030;4.586;2022-08-30T12:44:58;2.83;;;1.30;;
41683;SDS011;27369;52.030;4.586;2022-08-30T12:47:29;3.33;;;1.00;;
41683;SDS011;27369;52.030;4.586;2022-08-30T12:50:01;4.40;;;2.28;;
41683;SDS011;27369;52.030;4.586;2022-08-30T12:52:30;5.05;;;1.40;;
41683;SDS011;27369;52.030;4.586;2022-08-30T12:55:09;3.85;;;1.35;;
41683;SDS011;27369;52.030;4.586;2022-08-30T13:00:03;2.17;;;1.20;;
41683;SDS011;27369;52.030;4.586;2022-08-30T13:10:33;3.00;;;1.60;;
41683;SDS011;27369;52.030;4.586;2022-08-30T13:13:00;8.23;;;1.92;;
41683;SDS011;27369;52.030;4.586;2022-08-30T13:15:29;3.85;;;1.30;;
41683;SDS011;27369;52.030;4.586;2022-08-30T13:20:51;3.05;;;1.40;;
41683;SDS011;27369;52.030;4.586;2022-08-30T13:23:34;7.30;;;1.92;;
41683;SDS011;27369;52.030;4.586;2022-08-30T13:28:25;4.20;;;1.67;;
41683;SDS011;27369;52.030;4.586;2022-08-30T13:33:17;2.83;;;1.47;;
41683;SDS011;27369;52.030;4.586;2022-08-30T13:38:08;2.43;;;1.60;;
41683;SDS011;27369;52.030;4.586;2022-08-30T13:42:59;3.37;;;1.50;;
41683;SDS011;27369;52.030;4.586;2022-08-30T13:45:24;3.50;;;1.60;;
41683;SDS011;27369;52.030;4.586;2022-08-30T13:47:50;9.67;;;2.20;;
41683;SDS011;27369;52.030;4.586;2022-08-30T13:50:15;3.33;;;1.33;;
41683;SDS011;27369;52.030;4.586;2022-08-30T13:55:06;3.40;;;1.57;;
41683;SDS011;27369;52.030;4.586;2022-08-30T13:59:57;4.83;;;1.60;;
41683;SDS011;27369;52.030;4.586;2022-08-30T14:04:48;3.10;;;1.50;;
41683;SDS011;27369;52.030;4.586;2022-08-30T14:07:14;3.57;;;1.80;;
41683;SDS011;27369;52.030;4.586;2022-08-30T14:12:04;2.83;;;1.47;;
41683;SDS011;27369;52.030;4.586;2022-08-30T14:16:55;3.47;;;1.30;;
41683;SDS011;27369;52.030;4.586;2022-08-30T14:21:46;3.13;;;1.57;;
41683;SDS011;27369;52.030;4.586;2022-08-30T14:24:12;3.43;;;1.00;;
41683;SDS011;27369;52.030;4.586;2022-08-30T14:26:38;5.70;;;1.60;;
41683;SDS011;27369;52.030;4.586;2022-08-30T14:29:13;3.63;;;1.13;;
41683;SDS011;27369;52.030;4.586;2022-08-30T14:31:42;3.72;;;1.60;;
41683;SDS011;27369;52.030;4.586;2022-08-30T14:34:09;3.03;;;1.52;;
41683;SDS011;27369;52.030;4.586;2022-08-30T14:36:36;3.45;;;1.58;;
41683;SDS011;27369;52.030;4.586;2022-08-30T14:39:04;2.97;;;1.40;;
41683;SDS011;27369;52.030;4.586;2022-08-30T14:41:31;2.40;;;1.50;;
41683;SDS011;27369;52.030;4.586;2022-08-30T14:46:22;2.90;;;1.50;;
41683;SDS011;27369;52.030;4.586;2022-08-30T14:48:50;2.60;;;1.25;;
41683;SDS011;27369;52.030;4.586;2022-08-30T14:53:43;3.90;;;1.45;;
41683;SDS011;27369;52.030;4.586;2022-08-30T14:56:11;2.35;;;1.50;;
41683;SDS011;27369;52.030;4.586;2022-08-30T14:58:39;4.35;;;1.30;;
41683;SDS011;27369;52.030;4.586;2022-08-30T15:03:35;3.65;;;1.35;;
41683;SDS011;27369;52.030;4.586;2022-08-30T15:06:01;2.75;;;1.35;;
41683;SDS011;27369;52.030;4.586;2022-08-30T15:10:52;3.17;;;1.43;;
41683;SDS011;27369;52.030;4.586;2022-08-30T15:13:18;4.07;;;1.50;;
41683;SDS011;27369;52.030;4.586;2022-08-30T15:18:08;3.77;;;1.30;;
41683;SDS011;27369;52.030;4.586;2022-08-30T15:22:59;5.23;;;1.60;;
41683;SDS011;27369;52.030;4.586;2022-08-30T15:27:50;2.57;;;1.90;;
41683;SDS011;27369;52.030;4.586;2022-08-30T15:32:41;3.67;;;1.27;;
41683;SDS011;27369;52.030;4.586;2022-08-30T15:37:31;3.57;;;1.10;;
41683;SDS011;27369;52.030;4.586;2022-08-30T15:42:22;3.97;;;1.33;;
41683;SDS011;27369;52.030;4.586;2022-08-30T15:47:20;3.80;;;1.70;;
41683;SDS011;27369;52.030;4.586;2022-08-30T15:49:54;3.35;;;1.20;;
41683;SDS011;27369;52.030;4.586;2022-08-30T15:52:20;4.80;;;1.65;;
41683;SDS011;27369;52.030;4.586;2022-08-30T15:57:11;2.57;;;1.00;;
41683;SDS011;27369;52.030;4.586;2022-08-30T16:02:02;5.73;;;1.53;;
41683;SDS011;27369;52.030;4.586;2022-08-30T16:06:53;9.47;;;7.40;;
41683;SDS011;27369;52.030;4.586;2022-08-30T16:11:44;16.33;;;9.57;;
41683;SDS011;27369;52.030;4.586;2022-08-30T16:16:34;7.43;;;3.90;;
41683;SDS011;27369;52.030;4.586;2022-08-30T16:19:03;3.08;;;2.70;;
41683;SDS011;27369;52.030;4.586;2022-08-30T16:23:56;5.40;;;3.38;;
41683;SDS011;27369;52.030;4.586;2022-08-30T16:26:25;7.85;;;3.50;;
41683;SDS011;27369;52.030;4.586;2022-08-30T16:28:52;5.43;;;4.45;;
41683;SDS011;27369;52.030;4.586;2022-08-30T16:31:18;8.90;;;7.10;;
41683;SDS011;27369;52.030;4.586;2022-08-30T16:36:09;3.30;;;2.93;;
41683;SDS011;27369;52.030;4.586;2022-08-30T16:41:02;5.40;;;2.57;;
41683;SDS011;27369;52.030;4.586;2022-08-30T16:43:29;3.25;;;1.50;;
41683;SDS011;27369;52.030;4.586;2022-08-30T16:48:20;10.02;;;5.28;;
41683;SDS011;27369;52.030;4.586;2022-08-30T16:53:11;5.80;;;3.07;;
41683;SDS011;27369;52.030;4.586;2022-08-30T16:55:37;3.78;;;2.78;;
41683;SDS011;27369;52.030;4.586;2022-08-30T16:58:04;4.07;;;1.75;;
41683;SDS011;27369;52.030;4.586;2022-08-30T17:00:31;4.22;;;1.80;;
41683;SDS011;27369;52.030;4.586;2022-08-30T17:02:57;2.55;;;1.20;;
41683;SDS011;27369;52.030;4.586;2022-08-30T17:07:49;9.53;;;5.00;;
41683;SDS011;27369;52.030;4.586;2022-08-30T17:10:15;6.28;;;4.20;;
41683;SDS011;27369;52.030;4.586;2022-08-30T17:12:42;77.38;;;56.58;;
41683;SDS011;27369;52.030;4.586;2022-08-30T17:17:33;3.43;;;1.90;;
41683;SDS011;27369;52.030;4.586;2022-08-30T17:22:24;6.40;;;4.77;;
41683;SDS011;27369;52.030;4.586;2022-08-30T17:27:16;6.22;;;3.22;;
41683;SDS011;27369;52.030;4.586;2022-08-30T17:32:07;6.47;;;3.47;;
41683;SDS011;27369;52.030;4.586;2022-08-30T17:34:33;3.50;;;2.30;;
41683;SDS011;27369;52.030;4.586;2022-08-30T17:39:24;15.03;;;11.47;;
41683;SDS011;27369;52.030;4.586;2022-08-30T17:41:50;14.75;;;13.15;;
41683;SDS011;27369;52.030;4.586;2022-08-30T17:46:47;18.55;;;15.18;;
41683;SDS011;27369;52.030;4.586;2022-08-30T17:49:13;4.78;;;3.50;;
41683;SDS011;27369;52.030;4.586;2022-08-30T17:54:09;6.57;;;4.75;;
41683;SDS011;27369;52.030;4.586;2022-08-30T17:56:35;4.70;;;1.77;;
41683;SDS011;27369;52.030;4.586;2022-08-30T17:59:01;2.17;;;1.33;;
41683;SDS011;27369;52.030;4.586;2022-08-30T18:01:29;1.10;;;0.93;;
41683;SDS011;27369;52.030;4.586;2022-08-30T18:03:55;4.73;;;1.20;;
41683;SDS011;27369;52.030;4.586;2022-08-30T18:06:20;1.42;;;1.00;;
41683;SDS011;27369;52.030;4.586;2022-08-30T18:08:45;4.57;;;1.30;;
41683;SDS011;27369;52.030;4.586;2022-08-30T18:13:36;4.37;;;1.10;;
41683;SDS011;27369;52.030;4.586;2022-08-30T18:18:27;4.43;;;1.57;;
41683;SDS011;27369;52.030;4.586;2022-08-30T18:20:53;2.53;;;1.30;;
41683;SDS011;27369;52.030;4.586;2022-08-30T18:23:18;3.33;;;1.13;;
41683;SDS011;27369;52.030;4.586;2022-08-30T18:25:55;3.97;;;1.60;;
41683;SDS011;27369;52.030;4.586;2022-08-30T18:28:22;3.47;;;1.15;;
41683;SDS011;27369;52.030;4.586;2022-08-30T18:30:48;3.00;;;1.17;;
41683;SDS011;27369;52.030;4.586;2022-08-30T18:33:14;1.70;;;0.95;;
41683;SDS011;27369;52.030;4.586;2022-08-30T18:35:39;4.38;;;1.50;;